createdAt,value
2018-09-30T00:01:05.202Z,15.5
2018-09-30T00:06:01.350Z,15.5
2018-09-30T00:10:57.859Z,15.4
2018-09-30T00:15:54.290Z,15.4
2018-09-30T00:20:50.505Z,15.4
2018-09-30T00:25:46.926Z,15.4
2018-09-30T00:30:43.215Z,15.4
2018-09-30T00:35:39.749Z,15.4
2018-09-30T00:40:36.159Z,15.1
2018-09-30T00:45:32.423Z,15.4
2018-09-30T00:50:28.590Z,15.3
2018-09-30T00:55:25.521Z,14.5
2018-09-30T01:00:21.724Z,15.3
2018-09-30T01:05:18.365Z,15.2
2018-09-30T01:10:14.537Z,15.2
2018-09-30T01:15:10.583Z,15.1
2018-09-30T01:20:06.785Z,15.1
2018-09-30T01:25:03.264Z,15.1
2018-09-30T01:29:59.713Z,15
2018-09-30T01:34:55.902Z,15
2018-09-30T01:39:51.875Z,14.9
2018-09-30T01:44:47.980Z,14.8
2018-09-30T01:49:44.044Z,14.7
2018-09-30T01:54:40.349Z,14.7
2018-09-30T01:59:36.639Z,13.9
2018-09-30T02:04:33.396Z,14.6
2018-09-30T02:09:29.835Z,14.5
2018-09-30T02:14:26.223Z,14.4
2018-09-30T02:19:22.265Z,14.4
2018-09-30T02:24:18.348Z,14.3
2018-09-30T02:29:14.587Z,14.3
2018-09-30T02:34:11.077Z,14.2
2018-09-30T02:39:07.148Z,14.2
2018-09-30T02:44:03.564Z,14.1
2018-09-30T02:48:59.685Z,14.1
2018-09-30T02:53:55.844Z,14.1
2018-09-30T02:58:52.323Z,14
2018-09-30T03:03:49.681Z,13.2
2018-09-30T03:08:45.521Z,13.9
2018-09-30T03:13:41.852Z,13.8
2018-09-30T03:18:38.117Z,13.8
2018-09-30T03:23:34.751Z,13.8
2018-09-30T03:28:30.716Z,13.8
2018-09-30T03:33:26.804Z,7.6
2018-09-30T03:38:22.949Z,13.6
2018-09-30T03:43:19.156Z,13.6
2018-09-30T03:48:14.926Z,13.6
2018-09-30T03:53:11.059Z,13.5
2018-09-30T03:58:07.495Z,13.5
2018-09-30T04:03:04.364Z,13.4
2018-09-30T04:08:00.641Z,13.4
2018-09-30T04:12:57.271Z,13.4
2018-09-30T04:17:53.535Z,13.4
2018-09-30T04:22:49.878Z,13.3
2018-09-30T04:27:46.451Z,13.3
2018-09-30T04:32:42.447Z,13.2
2018-09-30T04:37:38.634Z,13.2
2018-09-30T04:42:34.840Z,13.1
2018-09-30T04:47:31.439Z,12.9
2018-09-30T04:52:28.026Z,13.1
2018-09-30T04:57:24.422Z,13.1
2018-09-30T05:02:20.623Z,11.4
2018-09-30T05:07:16.669Z,12.6
2018-09-30T05:12:12.666Z,12.3
2018-09-30T05:17:08.406Z,13
2018-09-30T05:22:04.718Z,13.1
2018-09-30T05:27:00.617Z,13.1
2018-09-30T05:31:56.876Z,12.3
2018-09-30T05:36:53.288Z,13.1
2018-09-30T05:41:49.772Z,13.1
2018-09-30T05:46:46.024Z,12.4
2018-09-30T05:51:42.195Z,12.2
2018-09-30T05:56:38.513Z,12.9
2018-09-30T06:01:34.775Z,12.9
2018-09-30T06:06:30.986Z,13.1
2018-09-30T06:11:27.753Z,13.2
2018-09-30T06:16:23.284Z,13.2
2018-09-30T06:21:19.574Z,13.2
2018-09-30T06:26:15.990Z,13.3
2018-09-30T06:31:12.636Z,13.3
2018-09-30T06:36:08.848Z,12.5
2018-09-30T06:41:05.489Z,13.3
2018-09-30T06:46:01.966Z,13.4
2018-09-30T06:50:58.205Z,12.8
2018-09-30T06:55:54.482Z,13.4
2018-09-30T07:00:50.947Z,13.5
2018-09-30T07:05:46.897Z,13.5
2018-09-30T07:10:44.246Z,13.6
2018-09-30T07:15:40.018Z,13.6
2018-09-30T07:20:36.429Z,13.7
2018-09-30T07:25:32.745Z,13.8
2018-09-30T07:30:28.952Z,13.8
2018-09-30T07:35:25.180Z,13.9
2018-09-30T07:40:21.365Z,14
2018-09-30T07:45:17.055Z,14
2018-09-30T07:50:13.582Z,14.1
2018-09-30T07:55:09.593Z,13.4
2018-09-30T08:00:06.650Z,14.3
2018-09-30T08:05:03.628Z,14.1
2018-09-30T08:09:59.885Z,14.4
2018-09-30T08:14:56.182Z,14.4
2018-09-30T08:19:52.225Z,14.5
2018-09-30T08:24:48.989Z,13.8
2018-09-30T08:29:45.984Z,13.8
2018-09-30T08:34:43.374Z,13.8
2018-09-30T08:39:39.334Z,14.6
2018-09-30T08:44:35.717Z,14.6
2018-09-30T08:49:32.100Z,14.7
2018-09-30T08:54:33.756Z,14.7
2018-09-30T08:59:37.410Z,14.1
2018-09-30T09:04:36.589Z,14.8
2018-09-30T09:09:32.851Z,14.9
2018-09-30T09:14:28.537Z,14.1
2018-09-30T09:19:24.785Z,14.9
2018-09-30T09:24:20.861Z,15
2018-09-30T09:29:17.279Z,15
2018-09-30T09:34:13.566Z,15
2018-09-30T09:39:09.809Z,14.4
2018-09-30T09:44:06.227Z,14.5
2018-09-30T09:49:02.636Z,15.2
2018-09-30T09:53:59.200Z,15.3
2018-09-30T09:58:55.996Z,15.4
2018-09-30T10:03:52.041Z,14.8
2018-09-30T10:08:48.355Z,15.6
2018-09-30T10:13:44.736Z,14.9
2018-09-30T10:18:41.218Z,15.6
2018-09-30T10:23:37.646Z,15.6
2018-09-30T10:28:34.505Z,15.6
2018-09-30T10:33:30.814Z,15.6
2018-09-30T10:38:27.244Z,15.6
2018-09-30T10:43:23.467Z,15.6
2018-09-30T10:48:19.943Z,15.6
2018-09-30T10:53:16.223Z,15.5
2018-09-30T10:58:13.633Z,14.8
2018-09-30T11:03:09.680Z,15.5
2018-09-30T11:08:05.977Z,14.7
2018-09-30T11:13:02.263Z,15.4
2018-09-30T11:17:58.429Z,15.4
2018-09-30T11:22:55.223Z,15.4
2018-09-30T11:27:51.850Z,15.4
2018-09-30T11:32:48.041Z,15.4
2018-09-30T11:37:44.326Z,15.4
2018-09-30T11:42:40.720Z,15.4
2018-09-30T11:47:36.419Z,14.6
2018-09-30T11:52:32.992Z,15.4
2018-09-30T11:57:28.911Z,14.7
2018-09-30T12:02:25.567Z,15.4
2018-09-30T12:07:21.911Z,15.4
2018-09-30T12:12:18.118Z,14.6
2018-09-30T12:17:14.401Z,15.4
2018-09-30T12:22:10.904Z,15.4
2018-09-30T12:27:07.860Z,14.6
2018-09-30T12:32:04.440Z,15.4
2018-09-30T12:37:00.683Z,15.4
2018-09-30T12:41:57.105Z,14.6
2018-09-30T12:46:53.326Z,15.3
2018-09-30T12:51:49.555Z,15.4
2018-09-30T12:56:46.508Z,15.4
2018-09-30T13:01:42.748Z,14.7
2018-09-30T13:06:39.399Z,15.5
2018-09-30T13:11:35.760Z,15.6
2018-09-30T13:16:32.138Z,15.6
2018-09-30T13:21:28.414Z,15.6
2018-09-30T13:26:24.661Z,15
2018-09-30T13:31:20.989Z,15.7
2018-09-30T13:36:17.521Z,15.7
2018-09-30T13:41:14.185Z,15.7
2018-09-30T13:46:10.934Z,15.6
2018-09-30T13:51:07.103Z,15.6
2018-09-30T13:56:03.526Z,15.5
2018-09-30T14:01:00.164Z,15.5
2018-09-30T14:05:57.196Z,15.4
2018-09-30T14:10:52.809Z,15.3
2018-09-30T14:15:49.206Z,15.3
2018-09-30T14:20:45.521Z,15.3
2018-09-30T14:25:41.804Z,15.2
2018-09-30T14:30:38.130Z,14.4
2018-09-30T14:35:34.404Z,15.1
2018-09-30T14:40:30.761Z,15.1
2018-09-30T14:45:27.211Z,15
2018-09-30T14:50:23.736Z,15
2018-09-30T14:55:19.972Z,14.2
2018-09-30T15:00:16.235Z,14.9
2018-09-30T15:05:12.599Z,14.8
2018-09-30T15:10:08.865Z,14.7
2018-09-30T15:15:06.873Z,14.7
2018-09-30T15:20:03.123Z,14.7
2018-09-30T15:24:59.139Z,14.6
2018-09-30T15:29:55.090Z,14.6
2018-09-30T15:34:51.559Z,14.6
2018-09-30T15:39:47.794Z,14.6
2018-09-30T15:44:44.326Z,14.6
2018-09-30T15:49:40.534Z,14.6
2018-09-30T15:54:37.299Z,13.8
2018-09-30T15:59:33.592Z,14.5
2018-09-30T16:04:29.880Z,14.5
2018-09-30T16:09:26.046Z,14.4
2018-09-30T16:14:22.329Z,14.4
2018-09-30T16:19:18.777Z,14.4
2018-09-30T16:24:15.317Z,14.4
2018-09-30T16:29:11.461Z,14.3
2018-09-30T16:34:07.359Z,14.2
2018-09-30T16:39:03.748Z,13.4
2018-09-30T16:44:00.054Z,13.4
2018-09-30T16:48:56.371Z,14.1
2018-09-30T16:53:52.754Z,13.4
2018-09-30T16:58:48.934Z,13.3
2018-09-30T17:03:45.705Z,13.7
2018-09-30T17:08:41.845Z,14
2018-09-30T17:13:38.042Z,13.9
2018-09-30T17:18:34.240Z,13.9
2018-09-30T17:23:30.393Z,13.9
2018-09-30T17:28:26.513Z,13.1
2018-09-30T17:33:22.620Z,13.9
2018-09-30T17:38:18.910Z,13.9
2018-09-30T17:43:15.195Z,13.8
2018-09-30T17:48:11.607Z,12.8
2018-09-30T17:53:07.794Z,13.8
2018-09-30T17:58:04.272Z,13.8
2018-09-30T18:03:00.359Z,13.8
2018-09-30T18:07:56.697Z,13.8
2018-09-30T18:12:53.083Z,13.9
2018-09-30T18:17:49.433Z,13.9
2018-09-30T18:22:45.720Z,13.1
2018-09-30T18:27:42.024Z,13.9
2018-09-30T18:32:38.547Z,13.9
2018-09-30T18:37:34.866Z,13.9
2018-09-30T18:42:30.976Z,13.9
2018-09-30T18:47:27.862Z,13.9
2018-09-30T18:52:24.714Z,13.9
2018-09-30T18:57:20.927Z,13.9
2018-09-30T19:02:16.489Z,13.8
2018-09-30T19:07:12.909Z,13.8
2018-09-30T19:12:09.369Z,13.8
2018-09-30T19:17:05.784Z,13.8
2018-09-30T19:22:01.959Z,13.8
2018-09-30T19:26:58.583Z,13.8
2018-09-30T19:31:54.841Z,13.8
2018-09-30T19:36:51.315Z,13.8
2018-09-30T19:41:47.544Z,13.8
2018-09-30T19:46:43.761Z,13.8
2018-09-30T19:51:40.254Z,13.8
2018-09-30T19:56:36.754Z,13.8
2018-09-30T20:01:33.351Z,13
2018-09-30T20:06:29.288Z,13.8
2018-09-30T20:11:25.415Z,13.8
2018-09-30T20:16:21.679Z,13.8
2018-09-30T20:21:18.371Z,13.8
2018-09-30T20:26:14.411Z,13.8
2018-09-30T20:31:10.381Z,13.8
2018-09-30T20:36:06.634Z,13.8
2018-09-30T20:41:02.714Z,13.8
2018-09-30T20:45:59.214Z,13.8
2018-09-30T20:50:55.705Z,13.7
2018-09-30T20:55:51.792Z,13.7
2018-09-30T21:00:47.895Z,13.7
2018-09-30T21:05:44.113Z,13.6
2018-09-30T21:10:40.494Z,12.8
2018-09-30T21:15:36.757Z,13.6
2018-09-30T21:20:33.121Z,13.6
2018-09-30T21:25:29.125Z,13.6
2018-09-30T21:30:25.457Z,13.6
2018-09-30T21:35:21.813Z,13.6
2018-09-30T21:40:18.253Z,13.6
2018-09-30T21:45:14.642Z,13.6
2018-09-30T21:50:10.841Z,13.3
2018-09-30T21:55:07.727Z,13.6
2018-09-30T22:00:04.469Z,13.2
2018-09-30T22:05:00.507Z,13.6
2018-09-30T22:09:56.781Z,13.6
2018-09-30T22:14:53.103Z,13.6
2018-09-30T22:19:49.534Z,13.6
2018-09-30T22:24:45.988Z,13.6
2018-09-30T22:29:42.349Z,13.6
2018-09-30T22:34:38.658Z,13.6
2018-09-30T22:39:35.520Z,12.9
2018-09-30T22:44:31.640Z,13.6
2018-09-30T22:49:28.121Z,13.6
2018-09-30T22:54:24.698Z,13.6
2018-09-30T22:59:21.609Z,13.6
2018-09-30T23:04:17.877Z,13.6
2018-09-30T23:09:13.970Z,13.1
2018-09-30T23:14:10.256Z,13.6
2018-09-30T23:19:05.499Z,13.6
2018-09-30T23:24:01.881Z,13.6
2018-09-30T23:28:57.798Z,13.6
2018-09-30T23:33:59.453Z,11
2018-09-30T23:38:54.026Z,13.6
2018-09-30T23:43:50.290Z,13.6
2018-09-30T23:48:46.588Z,13.6
2018-09-30T23:53:42.782Z,13.6
2018-09-30T23:58:39.457Z,13.6
